sensor_id;sensor_type;location;lat;lon;timestamp;temperature;humidity
18335;DHT22;9293;49.524;10.964;2022-11-11T00:01:04;4.40;99.90
18335;DHT22;9293;49.524;10.964;2022-11-11T00:03:56;4.40;99.90
18335;DHT22;9293;49.524;10.964;2022-11-11T00:06:43;4.30;99.90
18335;DHT22;9293;49.524;10.964;2022-11-11T00:09:31;4.40;99.90
18335;DHT22;9293;49.524;10.964;2022-11-11T00:12:18;4.40;99.90
18335;DHT22;9293;49.524;10.964;2022-11-11T00:15:11;4.40;99.90
18335;DHT22;9293;49.524;10.964;2022-11-11T00:17:58;4.40;99.90
18335;DHT22;9293;49.524;10.964;2022-11-11T00:21:03;4.40;99.90
18335;DHT22;9293;49.524;10.964;2022-11-11T00:24:24;4.40;99.90
18335;DHT22;9293;49.524;10.964;2022-11-11T00:27:29;4.40;99.90
18335;DHT22;9293;49.524;10.964;2022-11-11T00:30:16;4.40;99.90
18335;DHT22;9293;49.524;10.964;2022-11-11T00:33:03;4.30;99.90
18335;DHT22;9293;49.524;10.964;2022-11-11T00:35:52;4.20;99.90
18335;DHT22;9293;49.524;10.964;2022-11-11T00:38:40;4.10;99.90
18335;DHT22;9293;49.524;10.964;2022-11-11T00:41:38;4.20;99.90
18335;DHT22;9293;49.524;10.964;2022-11-11T00:44:28;4.20;99.90
18335;DHT22;9293;49.524;10.964;2022-11-11T00:47:15;4.20;99.90
18335;DHT22;9293;49.524;10.964;2022-11-11T00:50:26;4.20;99.90
18335;DHT22;9293;49.524;10.964;2022-11-11T00:53:31;4.10;99.90
18335;DHT22;9293;49.524;10.964;2022-11-11T00:56:18;4.10;99.90
18335;DHT22;9293;49.524;10.964;2022-11-11T00:59:06;4.20;99.90
18335;DHT22;9293;49.524;10.964;2022-11-11T01:01:53;4.20;99.90
18335;DHT22;9293;49.524;10.964;2022-11-11T01:04:40;4.20;99.90
18335;DHT22;9293;49.524;10.964;2022-11-11T01:07:28;4.30;99.90
18335;DHT22;9293;49.524;10.964;2022-11-11T01:10:16;4.30;99.90
18335;DHT22;9293;49.524;10.964;2022-11-11T01:13:25;4.30;99.90
18335;DHT22;9293;49.524;10.964;2022-11-11T01:16:15;4.30;99.90
18335;DHT22;9293;49.524;10.964;2022-11-11T01:19:03;4.30;99.90
18335;DHT22;9293;49.524;10.964;2022-11-11T01:21:50;4.30;99.90
18335;DHT22;9293;49.524;10.964;2022-11-11T01:24:36;4.30;99.90
18335;DHT22;9293;49.524;10.964;2022-11-11T01:27:24;4.20;99.90
18335;DHT22;9293;49.524;10.964;2022-11-11T01:30:11;4.20;99.90
18335;DHT22;9293;49.524;10.964;2022-11-11T01:32:59;4.20;99.90
18335;DHT22;9293;49.524;10.964;2022-11-11T01:35:47;4.00;99.90
18335;DHT22;9293;49.524;10.964;2022-11-11T01:38:34;4.10;99.90
18335;DHT22;9293;49.524;10.964;2022-11-11T01:41:23;4.10;99.90
18335;DHT22;9293;49.524;10.964;2022-11-11T01:44:42;4.00;99.90
18335;DHT22;9293;49.524;10.964;2022-11-11T01:47:29;4.10;99.90
18335;DHT22;9293;49.524;10.964;2022-11-11T01:50:56;4.10;99.90
18335;DHT22;9293;49.524;10.964;2022-11-11T01:53:46;4.00;99.90
18335;DHT22;9293;49.524;10.964;2022-11-11T01:56:35;4.00;99.90
18335;DHT22;9293;49.524;10.964;2022-11-11T01:59:22;4.00;99.90
18335;DHT22;9293;49.524;10.964;2022-11-11T02:02:17;4.00;99.90
18335;DHT22;9293;49.524;10.964;2022-11-11T02:05:09;4.00;99.90
18335;DHT22;9293;49.524;10.964;2022-11-11T02:08:17;4.00;99.90
18335;DHT22;9293;49.524;10.964;2022-11-11T02:11:19;3.90;99.90
18335;DHT22;9293;49.524;10.964;2022-11-11T02:14:28;3.80;99.90
18335;DHT22;9293;49.524;10.964;2022-11-11T02:17:27;3.80;99.90
18335;DHT22;9293;49.524;10.964;2022-11-11T02:20:19;3.80;99.90
18335;DHT22;9293;49.524;10.964;2022-11-11T02:26:02;3.70;99.90
18335;DHT22;9293;49.524;10.964;2022-11-11T02:28:50;3.70;99.90
18335;DHT22;9293;49.524;10.964;2022-11-11T02:31:38;3.70;99.90
18335;DHT22;9293;49.524;10.964;2022-11-11T02:34:32;3.70;99.90
18335;DHT22;9293;49.524;10.964;2022-11-11T02:37:24;3.70;99.90
18335;DHT22;9293;49.524;10.964;2022-11-11T02:40:28;3.70;99.90
18335;DHT22;9293;49.524;10.964;2022-11-11T02:43:16;3.70;99.90
18335;DHT22;9293;49.524;10.964;2022-11-11T02:46:04;3.70;99.90
18335;DHT22;9293;49.524;10.964;2022-11-11T02:48:52;3.70;99.90
18335;DHT22;9293;49.524;10.964;2022-11-11T02:51:38;3.60;99.90
18335;DHT22;9293;49.524;10.964;2022-11-11T02:54:25;3.60;99.90
18335;DHT22;9293;49.524;10.964;2022-11-11T02:57:12;3.60;99.90
18335;DHT22;9293;49.524;10.964;2022-11-11T02:59:59;3.50;99.90
18335;DHT22;9293;49.524;10.964;2022-11-11T03:02:46;3.50;99.90
18335;DHT22;9293;49.524;10.964;2022-11-11T03:05:34;3.40;99.90
18335;DHT22;9293;49.524;10.964;2022-11-11T03:08:20;3.50;99.90
18335;DHT22;9293;49.524;10.964;2022-11-11T03:11:08;3.50;99.90
18335;DHT22;9293;49.524;10.964;2022-11-11T03:14:00;3.40;99.90
18335;DHT22;9293;49.524;10.964;2022-11-11T03:16:47;3.40;99.90
18335;DHT22;9293;49.524;10.964;2022-11-11T03:19:53;3.50;99.90
18335;DHT22;9293;49.524;10.964;2022-11-11T03:23:04;3.50;99.90
18335;DHT22;9293;49.524;10.964;2022-11-11T03:25:51;3.60;99.90
18335;DHT22;9293;49.524;10.964;2022-11-11T03:28:45;3.60;99.90
18335;DHT22;9293;49.524;10.964;2022-11-11T03:31:31;3.60;99.90
18335;DHT22;9293;49.524;10.964;2022-11-11T03:34:18;3.60;99.90
18335;DHT22;9293;49.524;10.964;2022-11-11T03:37:07;3.50;99.90
18335;DHT22;9293;49.524;10.964;2022-11-11T03:40:12;3.50;99.90
18335;DHT22;9293;49.524;10.964;2022-11-11T03:42:59;3.50;99.90
18335;DHT22;9293;49.524;10.964;2022-11-11T03:45:51;3.40;99.90
18335;DHT22;9293;49.524;10.964;2022-11-11T03:48:42;3.40;99.90
18335;DHT22;9293;49.524;10.964;2022-11-11T03:51:29;3.30;99.90
18335;DHT22;9293;49.524;10.964;2022-11-11T03:54:16;3.30;99.90
18335;DHT22;9293;49.524;10.964;2022-11-11T03:57:03;3.30;99.90
18335;DHT22;9293;49.524;10.964;2022-11-11T04:00:10;3.30;99.90
18335;DHT22;9293;49.524;10.964;2022-11-11T04:06:10;3.20;99.90
18335;DHT22;9293;49.524;10.964;2022-11-11T04:09:15;3.30;99.90
18335;DHT22;9293;49.524;10.964;2022-11-11T04:12:21;3.30;99.90
18335;DHT22;9293;49.524;10.964;2022-11-11T04:15:12;3.30;99.90
18335;DHT22;9293;49.524;10.964;2022-11-11T04:18:22;3.30;99.90
18335;DHT22;9293;49.524;10.964;2022-11-11T04:21:37;3.20;99.90
18335;DHT22;9293;49.524;10.964;2022-11-11T04:24:42;3.20;99.90
18335;DHT22;9293;49.524;10.964;2022-11-11T04:27:48;3.30;99.90
18335;DHT22;9293;49.524;10.964;2022-11-11T04:30:54;3.20;99.90
18335;DHT22;9293;49.524;10.964;2022-11-11T04:33:41;3.30;99.90
18335;DHT22;9293;49.524;10.964;2022-11-11T04:36:28;3.30;99.90
18335;DHT22;9293;49.524;10.964;2022-11-11T04:39:14;3.30;99.90
18335;DHT22;9293;49.524;10.964;2022-11-11T04:42:20;3.30;99.90
18335;DHT22;9293;49.524;10.964;2022-11-11T04:45:10;3.30;99.90
18335;DHT22;9293;49.524;10.964;2022-11-11T04:48:16;3.30;99.90
18335;DHT22;9293;49.524;10.964;2022-11-11T04:51:04;3.30;99.90
18335;DHT22;9293;49.524;10.964;2022-11-11T04:53:51;3.20;99.90
18335;DHT22;9293;49.524;10.964;2022-11-11T04:56:38;3.10;99.90
18335;DHT22;9293;49.524;10.964;2022-11-11T04:59:34;3.00;99.90
18335;DHT22;9293;49.524;10.964;2022-11-11T05:02:20;2.90;99.90
18335;DHT22;9293;49.524;10.964;2022-11-11T05:05:30;2.90;99.90
18335;DHT22;9293;49.524;10.964;2022-11-11T05:08:37;3.00;99.90
18335;DHT22;9293;49.524;10.964;2022-11-11T05:11:44;3.00;99.90
18335;DHT22;9293;49.524;10.964;2022-11-11T05:14:32;3.10;99.90
18335;DHT22;9293;49.524;10.964;2022-11-11T05:17:42;3.10;99.90
18335;DHT22;9293;49.524;10.964;2022-11-11T05:20:49;3.10;99.90
18335;DHT22;9293;49.524;10.964;2022-11-11T05:23:54;2.90;99.90
18335;DHT22;9293;49.524;10.964;2022-11-11T05:27:12;2.90;99.90
18335;DHT22;9293;49.524;10.964;2022-11-11T05:30:03;2.80;99.90
18335;DHT22;9293;49.524;10.964;2022-11-11T05:32:50;2.80;99.90
18335;DHT22;9293;49.524;10.964;2022-11-11T05:35:37;2.90;99.90
18335;DHT22;9293;49.524;10.964;2022-11-11T05:38:24;2.90;99.90
18335;DHT22;9293;49.524;10.964;2022-11-11T05:41:12;2.80;99.90
18335;DHT22;9293;49.524;10.964;2022-11-11T05:43:58;2.90;99.90
18335;DHT22;9293;49.524;10.964;2022-11-11T05:46:45;2.90;99.90
18335;DHT22;9293;49.524;10.964;2022-11-11T05:49:32;3.00;99.90
18335;DHT22;9293;49.524;10.964;2022-11-11T05:52:19;3.00;99.90
18335;DHT22;9293;49.524;10.964;2022-11-11T05:55:06;3.10;99.90
18335;DHT22;9293;49.524;10.964;2022-11-11T05:57:55;3.10;99.90
18335;DHT22;9293;49.524;10.964;2022-11-11T06:00:42;3.10;99.90
18335;DHT22;9293;49.524;10.964;2022-11-11T06:03:29;3.00;99.90
18335;DHT22;9293;49.524;10.964;2022-11-11T06:06:17;2.80;99.90
18335;DHT22;9293;49.524;10.964;2022-11-11T06:09:04;2.70;99.90
18335;DHT22;9293;49.524;10.964;2022-11-11T06:11:51;2.70;99.90
18335;DHT22;9293;49.524;10.964;2022-11-11T06:14:37;2.80;99.90
18335;DHT22;9293;49.524;10.964;2022-11-11T06:17:24;2.90;99.90
18335;DHT22;9293;49.524;10.964;2022-11-11T06:20:11;2.90;99.90
18335;DHT22;9293;49.524;10.964;2022-11-11T06:22:57;3.00;99.90
18335;DHT22;9293;49.524;10.964;2022-11-11T06:25:44;3.00;99.90
18335;DHT22;9293;49.524;10.964;2022-11-11T06:28:50;3.00;99.90
18335;DHT22;9293;49.524;10.964;2022-11-11T06:31:37;3.00;99.90
18335;DHT22;9293;49.524;10.964;2022-11-11T06:34:25;3.00;99.90
18335;DHT22;9293;49.524;10.964;2022-11-11T06:37:12;3.00;99.90
18335;DHT22;9293;49.524;10.964;2022-11-11T06:39:59;3.00;99.90
18335;DHT22;9293;49.524;10.964;2022-11-11T06:42:45;3.10;99.90
18335;DHT22;9293;49.524;10.964;2022-11-11T06:45:32;3.10;99.90
18335;DHT22;9293;49.524;10.964;2022-11-11T06:48:24;3.10;99.90
18335;DHT22;9293;49.524;10.964;2022-11-11T06:51:11;3.00;99.90
18335;DHT22;9293;49.524;10.964;2022-11-11T06:53:58;3.10;99.90
18335;DHT22;9293;49.524;10.964;2022-11-11T06:56:47;3.10;99.90
18335;DHT22;9293;49.524;10.964;2022-11-11T06:59:34;3.20;99.90
18335;DHT22;9293;49.524;10.964;2022-11-11T07:02:20;3.30;99.90
18335;DHT22;9293;49.524;10.964;2022-11-11T07:05:07;3.40;99.90
18335;DHT22;9293;49.524;10.964;2022-11-11T07:07:53;3.50;99.90
18335;DHT22;9293;49.524;10.964;2022-11-11T07:10:43;3.60;99.90
18335;DHT22;9293;49.524;10.964;2022-11-11T07:13:31;3.70;99.90
18335;DHT22;9293;49.524;10.964;2022-11-11T07:16:17;3.80;99.90
18335;DHT22;9293;49.524;10.964;2022-11-11T07:19:04;3.90;99.90
18335;DHT22;9293;49.524;10.964;2022-11-11T07:21:50;4.00;99.90
18335;DHT22;9293;49.524;10.964;2022-11-11T07:24:37;4.20;99.90
18335;DHT22;9293;49.524;10.964;2022-11-11T07:27:23;4.50;99.90
18335;DHT22;9293;49.524;10.964;2022-11-11T07:30:10;4.90;99.90
18335;DHT22;9293;49.524;10.964;2022-11-11T07:32:57;5.30;99.90
18335;DHT22;9293;49.524;10.964;2022-11-11T07:35:43;5.70;99.90
18335;DHT22;9293;49.524;10.964;2022-11-11T07:38:30;6.30;99.90
18335;DHT22;9293;49.524;10.964;2022-11-11T07:41:16;6.80;99.90
18335;DHT22;9293;49.524;10.964;2022-11-11T07:44:02;7.00;99.90
18335;DHT22;9293;49.524;10.964;2022-11-11T07:46:49;7.10;99.90
18335;DHT22;9293;49.524;10.964;2022-11-11T07:49:35;7.20;99.90
18335;DHT22;9293;49.524;10.964;2022-11-11T07:52:22;7.00;99.90
18335;DHT22;9293;49.524;10.964;2022-11-11T07:55:09;7.10;99.90
18335;DHT22;9293;49.524;10.964;2022-11-11T07:57:56;7.10;99.90
18335;DHT22;9293;49.524;10.964;2022-11-11T08:00:43;7.20;99.90
18335;DHT22;9293;49.524;10.964;2022-11-11T08:03:29;7.30;99.90
18335;DHT22;9293;49.524;10.964;2022-11-11T08:06:17;7.30;99.90
18335;DHT22;9293;49.524;10.964;2022-11-11T08:09:04;7.20;99.90
18335;DHT22;9293;49.524;10.964;2022-11-11T08:11:51;7.20;99.90
18335;DHT22;9293;49.524;10.964;2022-11-11T08:14:56;7.20;99.90
18335;DHT22;9293;49.524;10.964;2022-11-11T08:17:50;7.20;99.90
18335;DHT22;9293;49.524;10.964;2022-11-11T08:20:37;7.20;99.90
18335;DHT22;9293;49.524;10.964;2022-11-11T08:23:31;7.10;99.90
18335;DHT22;9293;49.524;10.964;2022-11-11T08:26:39;7.10;99.90
18335;DHT22;9293;49.524;10.964;2022-11-11T08:29:25;7.10;99.90
18335;DHT22;9293;49.524;10.964;2022-11-11T08:32:11;7.20;99.90
18335;DHT22;9293;49.524;10.964;2022-11-11T08:34:58;7.20;99.90
18335;DHT22;9293;49.524;10.964;2022-11-11T08:37:44;7.30;99.90
18335;DHT22;9293;49.524;10.964;2022-11-11T08:40:31;7.30;99.90
18335;DHT22;9293;49.524;10.964;2022-11-11T08:43:17;7.40;99.90
18335;DHT22;9293;49.524;10.964;2022-11-11T08:46:04;7.40;99.90
18335;DHT22;9293;49.524;10.964;2022-11-11T08:48:51;7.50;99.90
18335;DHT22;9293;49.524;10.964;2022-11-11T08:51:38;7.60;99.90
18335;DHT22;9293;49.524;10.964;2022-11-11T08:54:29;7.60;99.90
18335;DHT22;9293;49.524;10.964;2022-11-11T08:57:18;7.80;99.90
18335;DHT22;9293;49.524;10.964;2022-11-11T09:00:05;8.00;99.90
18335;DHT22;9293;49.524;10.964;2022-11-11T09:02:52;8.20;99.90
18335;DHT22;9293;49.524;10.964;2022-11-11T09:05:39;8.40;99.90
18335;DHT22;9293;49.524;10.964;2022-11-11T09:08:26;8.50;99.90
18335;DHT22;9293;49.524;10.964;2022-11-11T09:11:12;8.60;99.90
18335;DHT22;9293;49.524;10.964;2022-11-11T09:13:59;8.70;99.90
18335;DHT22;9293;49.524;10.964;2022-11-11T09:16:45;8.90;99.90
18335;DHT22;9293;49.524;10.964;2022-11-11T09:19:32;8.90;99.90
18335;DHT22;9293;49.524;10.964;2022-11-11T09:22:18;8.90;99.90
18335;DHT22;9293;49.524;10.964;2022-11-11T09:25:05;8.90;99.90
18335;DHT22;9293;49.524;10.964;2022-11-11T09:27:56;9.00;99.90
18335;DHT22;9293;49.524;10.964;2022-11-11T09:30:43;9.10;99.90
18335;DHT22;9293;49.524;10.964;2022-11-11T09:33:30;9.30;99.90
18335;DHT22;9293;49.524;10.964;2022-11-11T09:36:17;9.40;99.90
18335;DHT22;9293;49.524;10.964;2022-11-11T09:39:04;9.60;99.90
18335;DHT22;9293;49.524;10.964;2022-11-11T09:51:20;10.00;99.90
18335;DHT22;9293;49.524;10.964;2022-11-11T09:54:16;10.10;99.90
18335;DHT22;9293;49.524;10.964;2022-11-11T09:57:16;10.10;99.90
18335;DHT22;9293;49.524;10.964;2022-11-11T10:03:19;10.30;99.90
18335;DHT22;9293;49.524;10.964;2022-11-11T10:06:12;10.40;99.90
18335;DHT22;9293;49.524;10.964;2022-11-11T10:09:23;10.30;99.90
18335;DHT22;9293;49.524;10.964;2022-11-11T10:12:12;10.40;99.90
18335;DHT22;9293;49.524;10.964;2022-11-11T10:15:03;10.60;99.90
18335;DHT22;9293;49.524;10.964;2022-11-11T10:18:18;10.80;99.90
18335;DHT22;9293;49.524;10.964;2022-11-11T10:21:22;10.90;99.90
18335;DHT22;9293;49.524;10.964;2022-11-11T10:24:20;11.00;99.90
18335;DHT22;9293;49.524;10.964;2022-11-11T10:27:19;11.00;99.90
18335;DHT22;9293;49.524;10.964;2022-11-11T10:30:32;11.10;99.90
18335;DHT22;9293;49.524;10.964;2022-11-11T10:33:26;11.30;99.90
18335;DHT22;9293;49.524;10.964;2022-11-11T10:36:16;11.40;99.90
18335;DHT22;9293;49.524;10.964;2022-11-11T10:39:04;11.50;99.90
18335;DHT22;9293;49.524;10.964;2022-11-11T10:41:51;11.60;99.90
18335;DHT22;9293;49.524;10.964;2022-11-11T10:44:37;11.60;99.90
18335;DHT22;9293;49.524;10.964;2022-11-11T10:47:44;11.60;99.90
18335;DHT22;9293;49.524;10.964;2022-11-11T10:50:39;11.70;99.90
18335;DHT22;9293;49.524;10.964;2022-11-11T10:53:36;11.90;99.90
18335;DHT22;9293;49.524;10.964;2022-11-11T10:56:43;12.00;99.90
18335;DHT22;9293;49.524;10.964;2022-11-11T10:59:55;12.00;99.90
18335;DHT22;9293;49.524;10.964;2022-11-11T11:05:41;12.10;99.90
18335;DHT22;9293;49.524;10.964;2022-11-11T11:08:38;12.10;99.90
18335;DHT22;9293;49.524;10.964;2022-11-11T11:11:49;12.00;99.90
18335;DHT22;9293;49.524;10.964;2022-11-11T11:14:41;12.00;99.90
18335;DHT22;9293;49.524;10.964;2022-11-11T11:17:50;12.10;99.90
18335;DHT22;9293;49.524;10.964;2022-11-11T11:20:57;12.20;99.90
18335;DHT22;9293;49.524;10.964;2022-11-11T11:23:46;12.30;99.90
18335;DHT22;9293;49.524;10.964;2022-11-11T11:26:44;12.40;99.90
18335;DHT22;9293;49.524;10.964;2022-11-11T11:29:35;12.60;99.90
18335;DHT22;9293;49.524;10.964;2022-11-11T11:32:34;12.70;99.90
18335;DHT22;9293;49.524;10.964;2022-11-11T11:35:39;12.80;99.90
18335;DHT22;9293;49.524;10.964;2022-11-11T11:38:42;12.90;99.90
18335;DHT22;9293;49.524;10.964;2022-11-11T11:41:43;13.00;99.90
18335;DHT22;9293;49.524;10.964;2022-11-11T11:44:32;13.10;99.90
18335;DHT22;9293;49.524;10.964;2022-11-11T11:47:34;13.10;99.90
18335;DHT22;9293;49.524;10.964;2022-11-11T11:50:32;13.20;99.90
18335;DHT22;9293;49.524;10.964;2022-11-11T11:53:45;13.20;99.90
18335;DHT22;9293;49.524;10.964;2022-11-11T11:56:36;13.30;99.90
18335;DHT22;9293;49.524;10.964;2022-11-11T11:59:29;13.20;99.90
18335;DHT22;9293;49.524;10.964;2022-11-11T12:05:39;13.30;99.90
18335;DHT22;9293;49.524;10.964;2022-11-11T12:12:03;13.50;99.90
18335;DHT22;9293;49.524;10.964;2022-11-11T12:21:17;13.50;99.90
18335;DHT22;9293;49.524;10.964;2022-11-11T12:27:24;13.70;99.90
18335;DHT22;9293;49.524;10.964;2022-11-11T12:30:24;13.70;99.90
18335;DHT22;9293;49.524;10.964;2022-11-11T12:36:57;13.60;99.90
18335;DHT22;9293;49.524;10.964;2022-11-11T12:43:27;13.60;99.90
18335;DHT22;9293;49.524;10.964;2022-11-11T12:53:03;13.70;99.90
18335;DHT22;9293;49.524;10.964;2022-11-11T12:56:04;13.60;99.90
18335;DHT22;9293;49.524;10.964;2022-11-11T12:59:29;13.70;99.90
18335;DHT22;9293;49.524;10.964;2022-11-11T13:08:52;13.70;99.90
18335;DHT22;9293;49.524;10.964;2022-11-11T13:14:50;13.90;99.90
18335;DHT22;9293;49.524;10.964;2022-11-11T13:17:41;13.90;99.90
18335;DHT22;9293;49.524;10.964;2022-11-11T13:23:20;14.00;99.90
18335;DHT22;9293;49.524;10.964;2022-11-11T13:30:35;14.00;99.90
18335;DHT22;9293;49.524;10.964;2022-11-11T13:33:35;14.00;99.90
18335;DHT22;9293;49.524;10.964;2022-11-11T13:36:26;14.00;99.90
18335;DHT22;9293;49.524;10.964;2022-11-11T13:39:28;14.10;99.90
18335;DHT22;9293;49.524;10.964;2022-11-11T13:42:29;14.20;99.90
18335;DHT22;9293;49.524;10.964;2022-11-11T13:45:40;14.20;99.90
18335;DHT22;9293;49.524;10.964;2022-11-11T13:48:35;14.20;99.90
18335;DHT22;9293;49.524;10.964;2022-11-11T13:54:42;14.30;99.90
18335;DHT22;9293;49.524;10.964;2022-11-11T13:57:48;14.30;99.90
18335;DHT22;9293;49.524;10.964;2022-11-11T14:00:37;14.30;99.90
18335;DHT22;9293;49.524;10.964;2022-11-11T14:09:01;14.30;99.90
18335;DHT22;9293;49.524;10.964;2022-11-11T14:11:47;14.30;99.90
18335;DHT22;9293;49.524;10.964;2022-11-11T14:17:21;14.20;99.90
18335;DHT22;9293;49.524;10.964;2022-11-11T14:20:37;14.20;99.90
18335;DHT22;9293;49.524;10.964;2022-11-11T14:23:40;14.20;99.90
18335;DHT22;9293;49.524;10.964;2022-11-11T14:26:30;14.20;99.90
18335;DHT22;9293;49.524;10.964;2022-11-11T14:29:18;14.30;99.90
18335;DHT22;9293;49.524;10.964;2022-11-11T14:35:28;14.20;99.90
18335;DHT22;9293;49.524;10.964;2022-11-11T14:38:26;14.00;99.90
18335;DHT22;9293;49.524;10.964;2022-11-11T14:53:19;13.40;99.90
18335;DHT22;9293;49.524;10.964;2022-11-11T14:56:13;13.40;99.90
18335;DHT22;9293;49.524;10.964;2022-11-11T14:59:05;13.20;99.90
18335;DHT22;9293;49.524;10.964;2022-11-11T15:01:57;13.10;99.90
18335;DHT22;9293;49.524;10.964;2022-11-11T15:04:45;12.90;99.90
18335;DHT22;9293;49.524;10.964;2022-11-11T15:07:52;12.80;99.90
18335;DHT22;9293;49.524;10.964;2022-11-11T15:11:06;12.60;99.90
18335;DHT22;9293;49.524;10.964;2022-11-11T15:23:35;12.30;99.90
18335;DHT22;9293;49.524;10.964;2022-11-11T15:33:16;11.50;99.90
18335;DHT22;9293;49.524;10.964;2022-11-11T15:36:12;11.40;99.90
18335;DHT22;9293;49.524;10.964;2022-11-11T15:39:06;11.20;99.90
18335;DHT22;9293;49.524;10.964;2022-11-11T15:41:56;11.00;99.90
18335;DHT22;9293;49.524;10.964;2022-11-11T15:44:43;10.80;99.90
18335;DHT22;9293;49.524;10.964;2022-11-11T15:47:34;10.80;99.90
18335;DHT22;9293;49.524;10.964;2022-11-11T15:50:33;10.70;99.90
18335;DHT22;9293;49.524;10.964;2022-11-11T15:53:24;10.60;99.90
18335;DHT22;9293;49.524;10.964;2022-11-11T15:56:11;10.40;99.90
18335;DHT22;9293;49.524;10.964;2022-11-11T15:59:29;10.30;99.90
18335;DHT22;9293;49.524;10.964;2022-11-11T16:02:33;10.20;99.90
18335;DHT22;9293;49.524;10.964;2022-11-11T16:05:25;10.00;99.90
18335;DHT22;9293;49.524;10.964;2022-11-11T16:08:14;9.80;99.90
18335;DHT22;9293;49.524;10.964;2022-11-11T16:11:05;9.70;99.90
18335;DHT22;9293;49.524;10.964;2022-11-11T16:14:03;9.60;99.90
18335;DHT22;9293;49.524;10.964;2022-11-11T16:16:54;9.60;99.90
18335;DHT22;9293;49.524;10.964;2022-11-11T16:19:43;9.50;99.90
18335;DHT22;9293;49.524;10.964;2022-11-11T16:22:35;9.40;99.90
18335;DHT22;9293;49.524;10.964;2022-11-11T16:25:26;9.30;99.90
18335;DHT22;9293;49.524;10.964;2022-11-11T16:28:14;9.20;99.90
18335;DHT22;9293;49.524;10.964;2022-11-11T16:31:37;9.10;99.90
18335;DHT22;9293;49.524;10.964;2022-11-11T16:34:31;9.00;99.90
18335;DHT22;9293;49.524;10.964;2022-11-11T16:37:20;8.90;99.90
18335;DHT22;9293;49.524;10.964;2022-11-11T16:43:28;8.80;99.90
18335;DHT22;9293;49.524;10.964;2022-11-11T16:49:31;8.50;99.90
18335;DHT22;9293;49.524;10.964;2022-11-11T16:52:23;8.40;99.90
18335;DHT22;9293;49.524;10.964;2022-11-11T16:55:42;8.40;99.90
18335;DHT22;9293;49.524;10.964;2022-11-11T16:58:26;8.50;99.90
18335;DHT22;9293;49.524;10.964;2022-11-11T17:01:13;8.40;99.90
18335;DHT22;9293;49.524;10.964;2022-11-11T17:04:01;8.40;99.90
18335;DHT22;9293;49.524;10.964;2022-11-11T17:06:53;8.20;99.90
18335;DHT22;9293;49.524;10.964;2022-11-11T17:09:40;8.20;99.90
18335;DHT22;9293;49.524;10.964;2022-11-11T17:12:30;8.10;99.90
18335;DHT22;9293;49.524;10.964;2022-11-11T17:15:19;8.00;99.90
18335;DHT22;9293;49.524;10.964;2022-11-11T17:18:06;7.90;99.90
18335;DHT22;9293;49.524;10.964;2022-11-11T17:20:54;7.90;99.90
18335;DHT22;9293;49.524;10.964;2022-11-11T17:23:42;7.90;99.90
18335;DHT22;9293;49.524;10.964;2022-11-11T17:26:29;8.00;99.90
18335;DHT22;9293;49.524;10.964;2022-11-11T17:29:16;7.90;99.90
18335;DHT22;9293;49.524;10.964;2022-11-11T17:32:02;7.90;99.90
18335;DHT22;9293;49.524;10.964;2022-11-11T17:34:49;7.80;99.90
18335;DHT22;9293;49.524;10.964;2022-11-11T17:37:36;7.70;99.90
18335;DHT22;9293;49.524;10.964;2022-11-11T17:40:31;7.70;99.90
18335;DHT22;9293;49.524;10.964;2022-11-11T17:43:17;7.60;99.90
18335;DHT22;9293;49.524;10.964;2022-11-11T17:46:04;7.50;99.90
18335;DHT22;9293;49.524;10.964;2022-11-11T17:48:52;7.40;99.90
18335;DHT22;9293;49.524;10.964;2022-11-11T17:51:40;7.40;99.90
18335;DHT22;9293;49.524;10.964;2022-11-11T17:54:27;7.30;99.90
18335;DHT22;9293;49.524;10.964;2022-11-11T17:57:13;7.30;99.90
18335;DHT22;9293;49.524;10.964;2022-11-11T18:00:00;7.20;99.90
18335;DHT22;9293;49.524;10.964;2022-11-11T18:02:46;7.20;99.90
18335;DHT22;9293;49.524;10.964;2022-11-11T18:05:34;7.10;99.90
18335;DHT22;9293;49.524;10.964;2022-11-11T18:08:21;7.00;99.90
18335;DHT22;9293;49.524;10.964;2022-11-11T18:11:08;7.00;99.90
18335;DHT22;9293;49.524;10.964;2022-11-11T18:13:54;7.00;99.90
18335;DHT22;9293;49.524;10.964;2022-11-11T18:16:41;7.00;99.90
18335;DHT22;9293;49.524;10.964;2022-11-11T18:19:27;7.10;99.90
18335;DHT22;9293;49.524;10.964;2022-11-11T18:22:14;7.10;99.90
18335;DHT22;9293;49.524;10.964;2022-11-11T18:25:00;7.20;99.90
18335;DHT22;9293;49.524;10.964;2022-11-11T18:27:47;7.10;99.90
18335;DHT22;9293;49.524;10.964;2022-11-11T18:30:36;7.00;99.90
18335;DHT22;9293;49.524;10.964;2022-11-11T18:33:23;7.00;99.90
18335;DHT22;9293;49.524;10.964;2022-11-11T18:36:18;7.00;99.90
18335;DHT22;9293;49.524;10.964;2022-11-11T18:39:05;7.00;99.90
18335;DHT22;9293;49.524;10.964;2022-11-11T18:41:52;6.90;99.90
18335;DHT22;9293;49.524;10.964;2022-11-11T18:44:38;6.70;99.90
18335;DHT22;9293;49.524;10.964;2022-11-11T18:47:24;6.70;99.90
18335;DHT22;9293;49.524;10.964;2022-11-11T18:50:13;6.70;99.90
18335;DHT22;9293;49.524;10.964;2022-11-11T18:53:00;6.70;99.90
18335;DHT22;9293;49.524;10.964;2022-11-11T18:55:46;6.60;99.90
18335;DHT22;9293;49.524;10.964;2022-11-11T18:58:34;6.50;99.90
18335;DHT22;9293;49.524;10.964;2022-11-11T19:01:30;6.50;99.90
18335;DHT22;9293;49.524;10.964;2022-11-11T19:04:17;6.50;99.90
18335;DHT22;9293;49.524;10.964;2022-11-11T19:07:03;6.40;99.90
18335;DHT22;9293;49.524;10.964;2022-11-11T19:09:53;6.40;99.90
18335;DHT22;9293;49.524;10.964;2022-11-11T19:12:39;6.50;99.90
18335;DHT22;9293;49.524;10.964;2022-11-11T19:15:26;6.60;99.90
18335;DHT22;9293;49.524;10.964;2022-11-11T19:18:12;6.50;99.90
18335;DHT22;9293;49.524;10.964;2022-11-11T19:21:05;6.40;99.90
18335;DHT22;9293;49.524;10.964;2022-11-11T19:23:54;6.40;99.90
18335;DHT22;9293;49.524;10.964;2022-11-11T19:26:41;6.40;99.90
18335;DHT22;9293;49.524;10.964;2022-11-11T19:29:31;6.30;99.90
18335;DHT22;9293;49.524;10.964;2022-11-11T19:32:17;6.20;99.90
18335;DHT22;9293;49.524;10.964;2022-11-11T19:35:04;6.30;99.90
18335;DHT22;9293;49.524;10.964;2022-11-11T19:37:51;6.30;99.90
18335;DHT22;9293;49.524;10.964;2022-11-11T19:40:37;6.30;99.90
18335;DHT22;9293;49.524;10.964;2022-11-11T19:43:24;6.30;99.90
18335;DHT22;9293;49.524;10.964;2022-11-11T19:46:20;6.30;99.90
18335;DHT22;9293;49.524;10.964;2022-11-11T19:49:07;6.40;99.90
18335;DHT22;9293;49.524;10.964;2022-11-11T19:51:53;6.40;99.90
18335;DHT22;9293;49.524;10.964;2022-11-11T19:54:40;6.40;99.90
18335;DHT22;9293;49.524;10.964;2022-11-11T19:57:26;6.40;99.90
18335;DHT22;9293;49.524;10.964;2022-11-11T20:00:13;6.40;99.90
18335;DHT22;9293;49.524;10.964;2022-11-11T20:03:03;6.40;99.90
18335;DHT22;9293;49.524;10.964;2022-11-11T20:05:50;6.40;99.90
18335;DHT22;9293;49.524;10.964;2022-11-11T20:08:39;6.30;99.90
18335;DHT22;9293;49.524;10.964;2022-11-11T20:11:26;6.30;99.90
18335;DHT22;9293;49.524;10.964;2022-11-11T20:14:13;6.30;99.90
18335;DHT22;9293;49.524;10.964;2022-11-11T20:17:00;6.30;99.90
18335;DHT22;9293;49.524;10.964;2022-11-11T20:19:46;6.20;99.90